createdAt,value
2023-03-22T00:01:19.504Z,10.24
2023-03-22T00:03:49.464Z,10.32
2023-03-22T00:06:19.069Z,10.44
2023-03-22T00:08:51.505Z,10.44
2023-03-22T00:11:20.942Z,10.45
2023-03-22T00:13:52.523Z,10.41
2023-03-22T00:16:23.060Z,10.55
2023-03-22T00:18:52.191Z,10.56
2023-03-22T00:21:21.159Z,10.58
2023-03-22T00:23:49.532Z,10.69
2023-03-22T00:26:17.994Z,10.70
2023-03-22T00:28:46.531Z,10.72
2023-03-22T00:31:15.240Z,10.71
2023-03-22T00:33:45.235Z,10.72
2023-03-22T00:36:15.926Z,10.73
2023-03-22T00:38:53.872Z,10.72
2023-03-22T00:41:23.737Z,10.74
2023-03-22T00:43:53.062Z,10.77
2023-03-22T00:46:23.027Z,10.69
2023-03-22T00:48:52.840Z,10.66
2023-03-22T00:51:21.326Z,10.56
2023-03-22T00:53:50.988Z,10.56
2023-03-22T00:56:19.695Z,10.59
2023-03-22T00:58:48.074Z,10.60
2023-03-22T01:01:16.561Z,10.62
2023-03-22T01:03:45.500Z,10.61
2023-03-22T01:06:15.617Z,10.54
2023-03-22T01:08:43.979Z,10.60
2023-03-22T01:11:12.802Z,10.63
2023-03-22T01:13:42.352Z,10.69
2023-03-22T01:16:11.457Z,10.68
2023-03-22T01:18:40.806Z,10.69
2023-03-22T01:21:09.864Z,10.73
2023-03-22T01:23:39.950Z,10.88
2023-03-22T01:26:08.472Z,10.78
2023-03-22T01:28:36.935Z,10.74
2023-03-22T01:31:05.649Z,10.77
2023-03-22T01:33:34.133Z,10.71
2023-03-22T01:36:02.590Z,10.68
2023-03-22T01:38:31.012Z,10.57
2023-03-22T01:41:00.768Z,10.58
2023-03-22T01:43:29.558Z,10.60
2023-03-22T01:45:58.311Z,10.60
2023-03-22T01:48:31.286Z,10.70
2023-03-22T01:51:05.141Z,10.68
2023-03-22T01:53:38.040Z,10.61
2023-03-22T01:56:09.594Z,10.61
2023-03-22T01:58:39.702Z,10.50
2023-03-22T02:01:10.986Z,10.48
2023-03-22T02:03:46.027Z,10.45
2023-03-22T02:06:14.945Z,10.56
2023-03-22T02:08:43.333Z,10.52
2023-03-22T02:11:17.730Z,10.53
2023-03-22T02:14:27.285Z,10.53
2023-03-22T02:17:20.034Z,10.51
2023-03-22T02:20:20.314Z,10.39
2023-03-22T02:23:11.092Z,10.41
2023-03-22T02:26:03.231Z,10.36
2023-03-22T02:28:43.554Z,10.42
2023-03-22T02:31:26.012Z,10.43
2023-03-22T02:34:15.668Z,10.43
2023-03-22T02:37:20.161Z,10.43
2023-03-22T02:39:54.496Z,10.46
2023-03-22T02:42:35.713Z,10.39
2023-03-22T02:45:12.001Z,10.31
2023-03-22T02:47:44.703Z,10.27
2023-03-22T02:50:21.387Z,10.29
2023-03-22T02:52:54.046Z,10.24
2023-03-22T02:55:30.575Z,10.20
2023-03-22T02:58:04.722Z,10.07
2023-03-22T03:00:36.719Z,9.90
2023-03-22T03:03:12.169Z,9.86
2023-03-22T03:05:43.741Z,9.94
2023-03-22T03:08:14.429Z,10.07
2023-03-22T03:10:46.556Z,9.99
2023-03-22T03:13:16.740Z,9.78
2023-03-22T03:15:49.993Z,9.87
2023-03-22T03:18:32.228Z,9.76
2023-03-22T03:21:08.881Z,9.69
2023-03-22T03:23:50.469Z,9.62
2023-03-22T03:26:38.217Z,9.66
2023-03-22T03:29:12.850Z,9.52
2023-03-22T03:31:46.378Z,9.50
2023-03-22T03:34:19.338Z,9.40
2023-03-22T03:36:53.632Z,9.39
2023-03-22T03:39:25.646Z,9.35
2023-03-22T03:41:57.295Z,9.33
2023-03-22T03:44:25.964Z,9.39
2023-03-22T03:46:55.453Z,9.34
2023-03-22T03:49:27.262Z,9.38
2023-03-22T03:51:57.282Z,9.37
2023-03-22T03:54:25.951Z,9.35
2023-03-22T03:56:55.910Z,9.29
2023-03-22T03:59:24.396Z,9.29
2023-03-22T04:01:53.053Z,9.20
2023-03-22T04:04:26.675Z,9.25
2023-03-22T04:07:00.437Z,9.19
2023-03-22T04:09:30.725Z,9.16
2023-03-22T04:12:00.904Z,9.18
2023-03-22T04:14:29.512Z,9.19
2023-03-22T04:16:57.912Z,9.17
2023-03-22T04:19:26.664Z,9.23
2023-03-22T04:21:55.441Z,9.16
2023-03-22T04:24:23.856Z,9.18
2023-03-22T04:26:53.219Z,9.18
2023-03-22T04:29:23.074Z,9.17
2023-03-22T04:31:53.021Z,9.17
2023-03-22T04:34:21.732Z,9.10
2023-03-22T04:36:50.652Z,9.08
2023-03-22T04:39:19.277Z,9.10
2023-03-22T04:41:47.875Z,9.05
2023-03-22T04:44:16.309Z,9.07
2023-03-22T04:46:46.097Z,9.03
2023-03-22T04:49:14.434Z,9.21
2023-03-22T04:51:42.796Z,9.04
2023-03-22T04:54:11.326Z,9.01
2023-03-22T04:56:39.705Z,8.98
2023-03-22T04:59:08.137Z,8.93
2023-03-22T05:01:37.467Z,9.00
2023-03-22T05:04:07.751Z,8.97
2023-03-22T05:06:36.061Z,8.91
2023-03-22T05:09:05.952Z,8.94
2023-03-22T05:11:34.333Z,9.00
2023-03-22T05:14:02.999Z,9.13
2023-03-22T05:16:31.442Z,9.25
2023-03-22T05:19:02.472Z,9.29
2023-03-22T05:21:36.555Z,9.34
2023-03-22T05:24:05.731Z,9.38
2023-03-22T05:26:37.881Z,9.48
2023-03-22T05:29:06.436Z,9.54
2023-03-22T05:31:34.799Z,9.64
2023-03-22T05:34:03.304Z,9.57
2023-03-22T05:36:36.448Z,9.55
2023-03-22T05:39:05.261Z,9.63
2023-03-22T05:41:36.223Z,9.64
2023-03-22T05:44:05.367Z,9.66
2023-03-22T05:46:42.366Z,9.70
2023-03-22T05:49:12.175Z,9.69
2023-03-22T05:51:42.576Z,9.75
2023-03-22T05:54:11.746Z,9.89
2023-03-22T05:56:40.638Z,9.93
2023-03-22T05:59:09.338Z,9.98
2023-03-22T06:01:39.312Z,10.09
2023-03-22T06:04:07.835Z,10.16
2023-03-22T06:06:36.374Z,10.22
2023-03-22T06:09:16.304Z,10.30
2023-03-22T06:11:45.685Z,10.32
2023-03-22T06:14:14.048Z,10.39
2023-03-22T06:16:42.609Z,10.44
2023-03-22T06:19:11.251Z,10.48
2023-03-22T06:21:39.658Z,10.56
2023-03-22T06:24:10.185Z,10.66
2023-03-22T06:26:38.597Z,10.71
2023-03-22T06:29:07.196Z,10.73
2023-03-22T06:31:35.643Z,10.74
2023-03-22T06:34:04.543Z,10.84
2023-03-22T06:36:33.016Z,10.96
2023-03-22T06:39:02.927Z,11.03
2023-03-22T06:41:32.744Z,11.10
2023-03-22T06:44:01.517Z,11.03
2023-03-22T06:46:30.041Z,11.17
2023-03-22T06:48:58.577Z,11.11
2023-03-22T06:51:27.043Z,11.10
2023-03-22T06:53:55.677Z,11.04
2023-03-22T06:56:24.203Z,11.01
2023-03-22T06:58:54.610Z,11.07
2023-03-22T07:01:23.276Z,11.08
2023-03-22T07:03:51.853Z,11.18
2023-03-22T07:06:20.366Z,11.16
2023-03-22T07:08:50.898Z,11.09
2023-03-22T07:11:20.748Z,11.12
2023-03-22T07:13:49.165Z,11.13
2023-03-22T07:16:20.103Z,11.25
2023-03-22T07:18:48.683Z,11.34
2023-03-22T07:21:17.263Z,11.21
2023-03-22T07:23:45.737Z,11.15
2023-03-22T07:26:14.328Z,11.17
2023-03-22T07:28:44.482Z,11.12
2023-03-22T07:31:14.442Z,11.35
2023-03-22T07:33:44.334Z,11.48
2023-03-22T07:36:13.096Z,12.15
2023-03-22T07:38:41.914Z,12.42
2023-03-22T07:41:10.694Z,12.30
2023-03-22T07:43:53.182Z,12.84
2023-03-22T07:46:24.081Z,13.35
2023-03-22T07:48:53.809Z,13.60
2023-03-22T07:51:22.584Z,13.67
2023-03-22T07:53:51.394Z,14.35
2023-03-22T07:56:19.925Z,14.52
2023-03-22T07:58:48.648Z,15.21
2023-03-22T08:01:17.053Z,14.17
2023-03-22T08:03:45.532Z,14.04
2023-03-22T08:06:16.490Z,13.48
2023-03-22T08:08:44.838Z,13.11
2023-03-22T08:11:13.418Z,12.71
2023-03-22T08:13:41.901Z,12.38
2023-03-22T08:16:10.467Z,11.99
2023-03-22T08:18:38.886Z,12.15
2023-03-22T08:21:07.988Z,12.04
2023-03-22T08:23:42.136Z,12.08
2023-03-22T08:26:11.648Z,12.12
2023-03-22T08:28:40.077Z,11.96
2023-03-22T08:31:14.698Z,12.24
2023-03-22T08:33:44.636Z,12.33
2023-03-22T08:36:16.363Z,12.64
2023-03-22T08:38:46.376Z,12.48
2023-03-22T08:41:15.987Z,12.39
2023-03-22T08:43:44.659Z,12.40
2023-03-22T08:46:13.136Z,12.17
2023-03-22T08:48:42.363Z,12.27
2023-03-22T08:51:11.089Z,12.21
2023-03-22T08:53:39.584Z,12.46
2023-03-22T08:56:10.440Z,12.25
2023-03-22T08:58:38.961Z,12.52
2023-03-22T09:01:07.632Z,13.12
2023-03-22T09:03:36.336Z,12.83
2023-03-22T09:06:05.321Z,13.51
2023-03-22T09:08:33.983Z,13.65
2023-03-22T09:11:02.350Z,13.82
2023-03-22T09:13:32.653Z,13.03
2023-03-22T09:16:01.476Z,12.59
2023-03-22T09:18:29.881Z,12.66
2023-03-22T09:20:58.237Z,12.50
2023-03-22T09:23:27.146Z,12.58
2023-03-22T09:25:55.738Z,13.05
2023-03-22T09:28:25.197Z,13.11
2023-03-22T09:30:55.695Z,13.65
2023-03-22T09:33:24.373Z,14.16
2023-03-22T09:35:54.589Z,13.27
2023-03-22T09:38:23.349Z,13.03
2023-03-22T09:41:00.432Z,13.23
2023-03-22T09:43:33.691Z,13.26
2023-03-22T09:46:06.325Z,13.16
2023-03-22T09:48:38.641Z,13.06
2023-03-22T09:51:21.575Z,13.20
2023-03-22T09:53:51.702Z,13.37
2023-03-22T09:56:24.881Z,13.39
2023-03-22T09:59:00.874Z,13.83
2023-03-22T10:01:39.298Z,13.93
2023-03-22T10:04:19.782Z,15.89
2023-03-22T10:06:52.237Z,15.03
2023-03-22T10:09:28.575Z,14.53
2023-03-22T10:12:04.953Z,13.88
2023-03-22T10:14:38.955Z,13.95
2023-03-22T10:17:13.273Z,13.17
2023-03-22T10:19:51.964Z,13.10
2023-03-22T10:22:25.644Z,12.86
2023-03-22T10:24:55.008Z,12.89
2023-03-22T10:27:24.777Z,13.14
2023-03-22T10:29:58.635Z,13.24
2023-03-22T10:32:38.957Z,13.03
2023-03-22T10:35:15.846Z,12.95
2023-03-22T10:37:47.795Z,12.79
2023-03-22T10:40:21.353Z,13.61
2023-03-22T10:42:55.561Z,14.95
2023-03-22T10:45:25.781Z,15.37
2023-03-22T10:48:01.757Z,15.54
2023-03-22T10:50:35.398Z,14.83
2023-03-22T10:53:06.839Z,14.37
2023-03-22T10:55:40.534Z,14.42
2023-03-22T10:58:14.930Z,13.49
2023-03-22T11:00:49.568Z,13.76
2023-03-22T11:03:30.666Z,13.95
2023-03-22T11:06:02.945Z,13.88
2023-03-22T11:08:40.049Z,13.65
2023-03-22T11:11:18.736Z,13.93
2023-03-22T11:13:57.059Z,13.50
2023-03-22T11:16:26.316Z,13.95
2023-03-22T11:18:59.136Z,13.71
2023-03-22T11:21:33.016Z,13.85
2023-03-22T11:24:05.681Z,13.73
2023-03-22T11:26:41.608Z,13.63
2023-03-22T11:29:17.983Z,13.70
2023-03-22T11:31:55.801Z,13.85
2023-03-22T11:34:29.520Z,13.61
2023-03-22T11:37:01.385Z,13.27
2023-03-22T11:39:30.982Z,13.02
2023-03-22T11:42:06.561Z,13.15
2023-03-22T11:44:37.911Z,13.24
2023-03-22T11:47:09.764Z,13.24
2023-03-22T11:49:45.480Z,13.07
2023-03-22T11:52:18.701Z,13.14
2023-03-22T11:54:48.871Z,13.17
2023-03-22T11:57:21.594Z,13.05
2023-03-22T11:59:58.235Z,12.91
2023-03-22T12:02:30.382Z,12.92
2023-03-22T12:05:07.148Z,13.03
2023-03-22T12:07:37.574Z,12.90
2023-03-22T12:10:12.931Z,12.84
2023-03-22T12:12:47.378Z,12.45
2023-03-22T12:15:21.234Z,12.14
2023-03-22T12:17:56.030Z,12.02
2023-03-22T12:20:37.266Z,12.02
2023-03-22T12:23:14.556Z,12.05
2023-03-22T12:25:47.349Z,12.13
2023-03-22T12:28:19.280Z,12.35
2023-03-22T12:30:51.115Z,12.53
2023-03-22T12:33:24.825Z,12.53
2023-03-22T12:35:59.159Z,12.66
2023-03-22T12:38:34.068Z,13.00
2023-03-22T12:41:08.934Z,13.08
2023-03-22T12:43:47.825Z,13.58
2023-03-22T12:46:22.360Z,13.48
2023-03-22T12:48:54.753Z,13.10
2023-03-22T12:51:24.720Z,12.89
2023-03-22T12:53:57.055Z,12.87
2023-03-22T12:56:39.638Z,12.85
2023-03-22T12:59:16.867Z,12.79
2023-03-22T13:01:51.327Z,12.37
2023-03-22T13:04:50.468Z,12.19
2023-03-22T13:07:38.991Z,11.98
2023-03-22T13:10:41.820Z,11.91
2023-03-22T13:13:13.593Z,11.97
2023-03-22T13:15:59.043Z,11.99
2023-03-22T13:18:42.293Z,12.11
2023-03-22T13:21:16.741Z,12.29
2023-03-22T13:23:57.977Z,12.30
2023-03-22T13:26:34.590Z,12.34
2023-03-22T13:29:11.699Z,12.59
2023-03-22T13:31:44.975Z,12.68
2023-03-22T13:34:16.895Z,12.69
2023-03-22T13:36:54.934Z,12.46
2023-03-22T13:39:27.328Z,12.48
2023-03-22T13:42:09.548Z,12.61
2023-03-22T13:44:40.605Z,12.66
2023-03-22T13:47:35.144Z,12.78
2023-03-22T13:50:12.480Z,12.68
2023-03-22T13:52:43.635Z,12.70
2023-03-22T13:55:33.728Z,12.84
2023-03-22T13:58:05.823Z,13.01
2023-03-22T14:00:48.042Z,12.90
2023-03-22T14:03:25.510Z,13.08
2023-03-22T14:06:04.936Z,13.12
2023-03-22T14:08:35.598Z,13.11
2023-03-22T14:11:17.348Z,12.95
2023-03-22T14:13:51.452Z,13.02
2023-03-22T14:16:30.469Z,13.21
2023-03-22T14:19:01.753Z,12.93
2023-03-22T14:21:34.141Z,12.92
